Time;durP1;ratioP1;P1;durP2;ratioP2;P2;SDS_P1;SDS_P2;PMS_P1;PMS_P2;Temp;Humidity;BMP_temperature;BMP_pressure;BME280_temperature;BME280_humidity;BME280_pressure;Samples;Min_cycle;Max_cycle;Signal;HPM_P1;HPM_P2
2021/12/05 00:26:50;;;;;;;109.60;48.80;;;;;;;4.74;85.30;94204.19;5021026;28;20691;-80
2021/12/05 00:32:13;;;;;;;102.03;46.30;;;;;;;4.78;85.62;94224.44;5032845;28;20187;-80
2021/12/05 00:34:58;;;;;;;95.73;44.17;;;;;;;4.73;85.97;94221.63;5037097;28;20696;-80
2021/12/05 00:43:01;;;;;;;106.30;46.13;;;;;;;4.19;86.46;94145.88;5032832;28;20186;-80
2021/12/05 00:55:49;;;;;;;125.17;52.87;;;;;;;4.47;86.89;94179.72;5032669;28;20230;-80
2021/12/05 01:14:35;;;;;;;77.20;35.63;;;;;;;4.33;86.65;94183.22;5032296;28;20184;-81
2021/12/05 01:17:01;;;;;;;68.27;32.50;;;;;;;4.24;86.35;94182.56;5032155;28;20171;-80
2021/12/05 01:19:30;;;;;;;73.87;32.37;;;;;;;4.17;86.25;94163.47;5032395;28;20179;-80
2021/12/05 01:22:03;;;;;;;81.03;33.33;;;;;;;4.25;85.83;94183.38;5014494;28;20152;-81
2021/12/05 01:27:22;;;;;;;70.63;31.60;;;;;;;4.07;86.23;94157.78;5032131;28;20159;-80
2021/12/05 01:29:58;;;;;;;53.70;26.20;;;;;;;3.89;86.28;94136.63;5031989;28;20567;-80
2021/12/05 01:32:38;;;;;;;62.77;28.60;;;;;;;4.18;86.56;94165.91;5031886;28;20179;-79
2021/12/05 01:35:24;;;;;;;71.07;29.90;;;;;;;4.02;86.32;94134.94;5032057;28;20640;-80
2021/12/05 01:38:10;;;;;;;65.00;28.23;;;;;;;4.02;85.99;94152.34;5012641;28;21052;-80
2021/12/05 01:49:12;;;;;;;65.77;27.73;;;;;;;4.03;86.91;94154.75;5038724;28;20171;-79
2021/12/05 02:41:07;;;;;;;65.90;28.40;;;;;;;4.50;89.17;94174.13;5038012;28;20558;-79
2021/12/05 02:43:37;;;;;;;57.17;28.23;;;;;;;4.65;89.17;94167.03;5038297;28;20183;-79
2021/12/05 02:46:05;;;;;;;63.23;28.47;;;;;;;4.70;89.23;94169.03;5038088;28;20190;-79
2021/12/05 02:48:35;;;;;;;72.83;31.03;;;;;;;4.72;88.93;94167.06;5038002;28;20658;-79
2021/12/05 02:51:05;;;;;;;54.87;28.83;;;;;;;4.74;89.18;94170.28;5036088;28;20167;-80
2021/12/05 02:53:46;;;;;;;63.90;29.27;;;;;;;4.76;89.24;94163.06;5035197;28;20577;-80
2021/12/05 02:56:13;;;;;;;61.07;26.97;;;;;;;4.84;88.92;94168.91;5035407;28;20628;-80
2021/12/05 03:01:16;;;;;;;44.47;22.77;;;;;;;4.90;89.39;94165.56;5034735;28;20176;-81
2021/12/05 03:03:42;;;;;;;45.70;21.87;;;;;;;4.58;89.47;94106.25;5027546;28;20175;-81
2021/12/05 03:06:18;;;;;;;44.80;20.50;;;;;;;5.00;89.50;94170.44;5034559;28;20195;-81
2021/12/05 03:08:47;;;;;;;48.30;22.03;;;;;;;5.04;89.44;94165.63;5034516;28;20187;-81
2021/12/05 03:11:14;;;;;;;53.57;23.40;;;;;;;4.97;89.77;94149.94;5034595;28;20279;-81
2021/12/05 03:13:40;;;;;;;38.70;19.97;;;;;;;5.03;90.02;94164.00;5035079;28;20172;-81
2021/12/05 03:16:09;;;;;;;40.23;19.67;;;;;;;5.09;90.17;94165.84;5034497;28;20237;-81
2021/12/05 03:18:35;;;;;;;41.00;19.50;;;;;;;5.03;90.11;94143.13;5026151;28;20247;-81
2021/12/05 03:21:04;;;;;;;44.40;18.80;;;;;;;5.13;90.34;94154.00;5034342;28;20590;-81
2021/12/05 03:23:29;;;;;;;32.53;16.10;;;;;;;5.24;90.03;94158.69;5034280;28;20234;-81
2021/12/05 03:25:55;;;;;;;31.50;15.97;;;;;;;5.25;89.92;94158.50;5034420;28;20694;-81
2021/12/05 03:28:21;;;;;;;31.10;16.27;;;;;;;5.31;89.67;94151.69;5034413;28;20238;-81
2021/12/05 03:30:46;;;;;;;29.93;15.27;;;;;;;5.32;89.42;94150.69;5034518;28;20160;-81
2021/12/05 03:33:12;;;;;;;34.50;15.00;;;;;;;5.32;89.18;94153.28;5034644;28;20537;-81
2021/12/05 03:35:37;;;;;;;37.10;16.33;;;;;;;5.21;89.25;94141.59;5034710;28;20203;-81
2021/12/05 03:38:05;;;;;;;35.10;16.60;;;;;;;5.19;89.26;94161.09;5034459;28;20230;-81
2021/12/05 03:40:33;;;;;;;32.67;15.30;;;;;;;5.25;89.64;94149.84;5034442;28;20180;-81
2021/12/05 03:43:02;;;;;;;38.73;15.97;;;;;;;5.29;89.25;94154.47;5033967;28;20182;-81
2021/12/05 03:45:31;;;;;;;33.03;16.57;;;;;;;5.34;88.90;94150.50;5025521;28;20207;-81
2021/12/05 03:47:57;;;;;;;37.43;16.47;;;;;;;5.18;89.14;94130.78;5033806;28;20183;-81
2021/12/05 03:50:24;;;;;;;35.60;16.70;;;;;;;5.30;89.06;94150.06;5033956;28;20172;-81
2021/12/05 03:52:50;;;;;;;37.10;16.20;;;;;;;5.28;88.85;94134.59;5034000;28;20175;-81
2021/12/05 03:55:17;;;;;;;32.57;16.00;;;;;;;5.37;88.72;94153.50;5033879;28;20168;-81
2021/12/05 03:57:42;;;;;;;38.93;17.53;;;;;;;5.26;89.26;94135.81;5016102;28;20175;-81
2021/12/05 04:00:14;;;;;;;38.40;17.90;;;;;;;5.14;88.86;94116.50;5034073;28;20639;-81
2021/12/05 04:02:40;;;;;;;36.57;16.90;;;;;;;5.20;88.88;94113.91;5031626;28;20187;-81
2021/12/05 04:05:06;;;;;;;37.97;16.27;;;;;;;5.47;88.85;94146.09;5033400;28;20200;-81
2021/12/05 04:07:32;;;;;;;37.73;17.27;;;;;;;5.49;88.45;94151.94;5033320;28;20182;-81
2021/12/05 04:09:57;;;;;;;34.33;16.43;;;;;;;5.52;88.11;94164.59;5033382;28;20254;-81
2021/12/05 04:12:23;;;;;;;35.17;16.53;;;;;;;5.31;88.54;94130.81;5033561;28;20168;-81
2021/12/05 04:14:54;;;;;;;37.37;18.57;;;;;;;5.59;88.46;94165.41;5015764;28;20180;-81
2021/12/05 04:17:20;;;;;;;33.80;16.10;;;;;;;5.19;88.28;94101.88;5033432;28;20160;-81
2021/12/05 04:19:46;;;;;;;30.93;15.53;;;;;;;5.53;88.24;94150.56;5033994;28;20263;-81
2021/12/05 04:22:12;;;;;;;29.83;16.70;;;;;;;5.52;88.09;94159.38;5015518;28;20626;-81
2021/12/05 04:24:38;;;;;;;36.20;17.50;;;;;;;5.23;88.21;94120.53;5033404;28;20234;-81
2021/12/05 04:27:05;;;;;;;33.73;17.90;;;;;;;5.49;88.29;94170.19;5033273;28;20175;-81
2021/12/05 04:29:32;;;;;;;35.57;16.87;;;;;;;5.16;88.09;94117.13;5032960;28;20175;-80
2021/12/05 04:31:58;;;;;;;38.40;18.40;;;;;;;5.35;88.28;94146.88;5033025;28;20180;-82
2021/12/05 04:34:23;;;;;;;37.73;19.10;;;;;;;5.33;88.21;94147.06;5032855;28;20191;-81
2021/12/05 04:36:55;;;;;;;40.00;17.93;;;;;;;5.45;88.80;94166.38;5033135;28;20199;-81
2021/12/05 04:39:21;;;;;;;54.07;24.07;;;;;;;5.44;88.65;94170.00;5032837;28;20171;-81
2021/12/05 04:41:46;;;;;;;49.90;22.63;;;;;;;5.44;89.31;94182.25;5033211;28;20174;-81
2021/12/05 04:44:11;;;;;;;44.27;21.87;;;;;;;5.47;88.95;94164.38;5033175;28;20219;-81
2021/12/05 04:46:37;;;;;;;51.03;23.23;;;;;;;5.57;89.20;94177.06;5033095;28;20184;-81
2021/12/05 04:49:06;;;;;;;47.90;23.33;;;;;;;5.64;88.78;94178.66;5032984;28;20178;-81
2021/12/05 04:51:37;;;;;;;50.97;24.60;;;;;;;5.66;88.57;94176.69;5032505;28;20630;-82
2021/12/05 04:54:03;;;;;;;82.57;41.13;;;;;;;5.78;87.94;94189.16;5024400;28;20160;-82
2021/12/05 04:56:30;;;;;;;88.23;44.67;;;;;;;5.75;88.22;94181.72;5032513;28;20176;-81
2021/12/05 04:58:57;;;;;;;111.57;52.60;;;;;;;5.76;88.58;94185.94;5032892;28;20164;-81
2021/12/05 05:01:24;;;;;;;109.17;54.83;;;;;;;5.73;88.11;94199.38;5032666;28;20206;-81
2021/12/05 05:03:51;;;;;;;117.27;60.47;;;;;;;5.54;88.43;94167.78;5032312;28;20180;-81
2021/12/05 05:06:18;;;;;;;100.73;54.17;;;;;;;5.75;88.95;94205.22;5030150;28;20754;-82
2021/12/05 05:08:47;;;;;;;123.87;61.93;;;;;;;5.76;88.84;94209.44;5030607;28;20180;-82
2021/12/05 05:11:16;;;;;;;67.17;31.03;;;;;;;5.80;88.61;94201.00;5030487;28;20175;-82
2021/12/05 05:13:43;;;;;;;59.47;31.87;;;;;;;5.83;88.81;94205.03;5030138;28;20180;-82
2021/12/05 05:16:10;;;;;;;108.77;50.97;;;;;;;5.78;88.79;94197.81;5031535;28;20536;-82
2021/12/05 05:47:54;;;;;;;37.33;18.13;;;;;;;5.77;88.82;94180.53;5032199;28;20191;-82
2021/12/05 05:50:21;;;;;;;33.73;16.70;;;;;;;5.76;88.40;94176.31;5024256;28;20160;-82
2021/12/05 05:52:47;;;;;;;45.57;21.67;;;;;;;5.60;88.99;94140.13;5031875;28;20160;-82
2021/12/05 05:55:13;;;;;;;47.43;24.83;;;;;;;5.92;89.29;94189.00;5031753;28;20167;-82
2021/12/05 06:00:51;;;;;;;41.53;21.37;;;;;;;5.94;88.90;94173.16;5012548;28;20568;-82
2021/12/05 06:03:23;;;;;;;29.30;14.17;;;;;;;5.90;88.61;94175.34;5031876;28;20199;-82
2021/12/05 06:05:50;;;;;;;28.47;14.60;;;;;;;6.07;88.87;94210.53;5031874;28;20188;-82
2021/12/05 06:08:16;;;;;;;28.73;14.47;;;;;;;5.89;89.11;94178.13;5031548;28;20172;-82
2021/12/05 06:10:41;;;;;;;28.07;14.40;;;;;;;6.14;89.44;94212.38;5031505;28;20190;-82
2021/12/05 06:13:07;;;;;;;29.47;13.87;;;;;;;6.04;89.81;94190.03;5031703;28;20156;-82
2021/12/05 06:15:33;;;;;;;29.27;13.20;;;;;;;5.98;89.52;94185.59;5031635;28;20215;-82
2021/12/05 06:17:59;;;;;;;28.97;12.90;;;;;;;6.20;88.97;94199.28;5031766;28;20184;-82
2021/12/05 06:20:28;;;;;;;28.43;14.00;;;;;;;6.32;89.21;94223.00;5032267;28;20156;-82
2021/12/05 06:22:54;;;;;;;29.23;14.53;;;;;;;6.40;89.69;94230.66;5031386;28;20269;-81
2021/12/05 06:25:23;;;;;;;62.47;25.63;;;;;;;6.46;88.83;94231.69;5031371;28;20630;-82
2021/12/05 06:27:55;;;;;;;58.77;25.97;;;;;;;6.62;89.11;94231.25;5034546;28;20187;-82
2021/12/05 06:31:02;;;;;;;87.03;35.17;;;;;;;6.92;87.72;94229.81;5035146;28;20168;-82
2021/12/05 06:46:42;;;;;;;94.77;44.27;;;;;;;8.28;78.54;94220.00;5029135;28;20206;-82
2021/12/05 06:49:08;;;;;;;77.40;36.43;;;;;;;8.42;79.04;94283.69;5034988;28;20557;-81
2021/12/05 06:51:35;;;;;;;44.33;22.37;;;;;;;8.05;79.57;94267.72;5035175;28;20678;-82
2021/12/05 06:54:01;;;;;;;38.40;17.67;;;;;;;7.91;80.42;94280.09;5035038;28;20175;-82
2021/12/05 06:56:26;;;;;;;33.83;16.63;;;;;;;7.80;81.20;94299.06;5034976;28;20164;-82
2021/12/05 06:58:52;;;;;;;31.60;17.10;;;;;;;7.64;81.65;94301.34;5035287;28;20177;-82
2021/12/05 07:01:18;;;;;;;34.30;16.73;;;;;;;7.54;82.26;94293.91;5036744;28;20172;-81
2021/12/05 07:03:46;;;;;;;30.47;16.07;;;;;;;7.38;82.74;94297.78;5038183;28;20176;-82
2021/12/05 07:06:27;;;;;;;30.83;16.37;;;;;;;7.31;83.07;94289.16;5034249;28;20255;-82
2021/12/05 07:08:56;;;;;;;36.23;16.53;;;;;;;6.98;83.37;94241.31;5033902;28;20187;-82
2021/12/05 07:11:36;;;;;;;31.50;15.70;;;;;;;7.27;83.40;94294.97;5034434;28;20182;-78
2021/12/05 07:22:23;;;;;;;42.43;18.67;;;;;;;7.14;84.40;94277.50;5034613;28;20609;-78
2021/12/05 07:25:03;;;;;;;43.03;19.13;;;;;;;7.23;84.99;94288.56;5034290;28;20242;-79
2021/12/05 07:40:55;;;;;;;51.10;25.43;;;;;;;7.30;84.78;94248.28;5033961;28;20234;-78
2021/12/05 07:43:20;;;;;;;45.50;20.83;;;;;;;7.45;83.84;94264.53;5033851;28;20176;-78
2021/12/05 07:46:05;;;;;;;39.80;19.77;;;;;;;7.27;84.22;94240.00;5033523;28;20639;-78
2021/12/05 07:48:34;;;;;;;40.80;20.73;;;;;;;7.30;84.49;94248.28;5032099;28;20218;-78
2021/12/05 07:51:10;;;;;;;42.90;22.20;;;;;;;7.42;84.51;94261.53;5029561;28;20186;-78
2021/12/05 07:54:27;;;;;;;46.23;23.23;;;;;;;6.65;84.86;94152.44;5033791;28;20233;-78
2021/12/05 07:56:39;;;;;;;48.07;24.03;;;;;;;7.34;84.71;94267.00;5023324;28;20184;-78
2021/12/05 08:15:16;;;;;;;26.07;12.60;;;;;;;7.46;84.92;94279.25;5025940;28;20237;-78
2021/12/05 08:17:50;;;;;;;22.67;12.37;;;;;;;7.44;84.05;94288.31;5033336;28;20198;-79
2021/12/05 08:20:18;;;;;;;21.30;10.73;;;;;;;7.46;85.02;94284.47;5033094;28;20180;-77
2021/12/05 08:22:44;;;;;;;23.93;10.80;;;;;;;7.57;84.77;94290.91;5032375;28;20175;-80
2021/12/05 08:25:11;;;;;;;22.37;11.77;;;;;;;7.44;84.83;94251.66;5032458;28;20230;-80
2021/12/05 08:27:41;;;;;;;27.70;12.33;;;;;;;7.72;84.65;94283.59;5033121;28;20245;-77
2021/12/05 08:30:11;;;;;;;21.13;10.57;;;;;;;7.96;83.22;94277.63;5018422;28;20559;-77
2021/12/05 08:32:57;;;;;;;26.03;13.07;;;;;;;7.80;83.24;94249.28;5029124;28;20183;-78
2021/12/05 08:41:31;;;;;;;19.13;9.70;;;;;;;8.06;81.12;94265.91;5028386;28;20271;-78
2021/12/05 08:46:20;;;;;;;17.73;10.30;;;;;;;8.02;81.34;94278.63;5029514;28;20203;-81
2021/12/05 09:22:01;;;;;;;17.60;11.03;;;;;;;9.24;78.78;94217.00;5032527;28;20229;-81
2021/12/05 09:25:13;;;;;;;27.07;12.13;;;;;;;9.62;76.78;94219.38;5031421;28;20234;-78
2021/12/05 10:02:50;;;;;;;20.20;10.53;;;;;;;9.94;73.10;94159.56;5032717;28;20305;-84
2021/12/05 10:08:38;;;;;;;18.00;8.83;;;;;;;9.59;73.93;94159.41;5025765;28;20187;-77
2021/12/05 10:16:29;;;;;;;18.20;10.00;;;;;;;9.58;74.29;94113.16;5014641;28;20664;-86
2021/12/05 10:38:13;;;;;;;18.70;10.07;;;;;;;10.11;71.43;94142.09;5031098;28;20258;-79
2021/12/05 10:40:45;;;;;;;18.57;9.07;;;;;;;9.86;72.13;94134.34;5033661;28;20180;-78
2021/12/05 10:43:19;;;;;;;16.93;9.50;;;;;;;9.62;73.26;94103.78;5034336;28;20187;-87
2021/12/05 10:46:21;;;;;;;17.80;9.47;;;;;;;9.75;75.13;94122.81;5022119;28;20192;-81
2021/12/05 10:49:05;;;;;;;20.30;9.80;;;;;;;9.85;74.75;94111.75;5003056;28;20270;-80
2021/12/05 10:51:35;;;;;;;22.20;11.50;;;;;;;9.67;73.16;94046.13;5035040;28;20343;-85
2021/12/05 10:54:10;;;;;;;21.30;10.50;;;;;;;10.17;73.19;94099.97;5034815;28;20167;-79
2021/12/05 10:56:52;;;;;;;23.20;12.17;;;;;;;10.17;72.71;94092.06;5031486;28;20167;-77
2021/12/05 10:59:24;;;;;;;20.23;11.20;;;;;;;10.35;73.73;94096.44;5033115;28;20595;-79
2021/12/05 11:01:56;;;;;;;22.20;10.53;;;;;;;10.43;74.15;94067.16;5034499;28;20189;-77
2021/12/05 11:04:23;;;;;;;21.97;11.47;;;;;;;10.63;72.08;94089.69;5034646;28;20156;-77
2021/12/05 11:06:52;;;;;;;25.30;11.57;;;;;;;10.77;73.85;94083.16;5034584;28;20216;-80
2021/12/05 11:09:27;;;;;;;24.03;11.37;;;;;;;10.80;71.73;94057.16;5034537;28;20191;-82
2021/12/05 11:11:56;;;;;;;18.27;9.57;;;;;;;11.05;70.21;94083.22;5033903;28;20702;-82
2021/12/05 11:14:28;;;;;;;22.40;9.13;;;;;;;10.67;69.71;94025.81;5034512;28;20167;-83
2021/12/05 11:16:57;;;;;;;16.83;8.27;;;;;;;10.86;69.15;94074.66;5034426;28;20149;-82
2021/12/05 11:19:39;;;;;;;14.97;8.00;;;;;;;10.34;69.30;93991.44;5034282;28;20284;-82
2021/12/05 11:22:27;;;;;;;16.43;8.70;;;;;;;10.71;70.12;94055.94;5016367;28;20560;-83
2021/12/05 11:24:55;;;;;;;16.30;8.40;;;;;;;10.58;70.49;94053.53;5033624;28;20232;-82
2021/12/05 11:27:22;;;;;;;13.60;8.73;;;;;;;10.43;71.23;94038.22;5033796;28;20183;-82
2021/12/05 11:29:57;;;;;;;17.73;8.80;;;;;;;10.64;71.72;94047.31;5034051;28;20176;-81
2021/12/05 11:32:35;;;;;;;22.77;11.43;;;;;;;10.68;70.69;94058.22;5033354;28;20202;-81
2021/12/05 11:35:19;;;;;;;16.30;8.83;;;;;;;10.64;71.21;94043.91;5033971;28;20171;-82
2021/12/05 11:38:10;;;;;;;17.43;7.97;;;;;;;10.76;70.30;94042.84;5034037;28;20156;-82
2021/12/05 11:40:48;;;;;;;21.40;9.00;;;;;;;10.79;69.82;94029.25;5033373;28;20192;-82
2021/12/05 11:43:23;;;;;;;20.30;8.73;;;;;;;10.58;70.31;93987.72;5032810;28;20251;-83
2021/12/05 11:46:02;;;;;;;20.77;8.83;;;;;;;10.50;69.44;93967.84;5033084;28;20258;-83
2021/12/05 11:48:35;;;;;;;16.77;9.40;;;;;;;10.82;69.99;94015.59;5033571;28;20178;-83
2021/12/05 11:51:22;;;;;;;17.67;8.60;;;;;;;10.54;69.94;93984.78;5015117;28;20179;-83
2021/12/05 11:54:13;;;;;;;19.23;9.10;;;;;;;10.54;70.92;94011.09;5033742;28;20179;-83
2021/12/05 11:56:41;;;;;;;23.80;10.57;;;;;;;10.59;71.09;94015.66;5029933;28;20198;-82
2021/12/05 11:59:15;;;;;;;19.93;9.47;;;;;;;10.63;70.77;94016.00;5033222;28;20237;-81
2021/12/05 12:02:08;;;;;;;28.07;9.37;;;;;;;10.74;71.35;94010.69;5033060;28;20166;-82
2021/12/05 12:04:43;;;;;;;15.10;8.70;;;;;;;10.75;70.59;93993.88;5014962;28;20233;-83
2021/12/05 12:07:21;;;;;;;13.90;8.27;;;;;;;10.44;70.26;93975.88;5032730;28;20207;-81
2021/12/05 12:09:49;;;;;;;16.07;8.63;;;;;;;10.37;70.68;93970.75;5015158;28;20564;-81
2021/12/05 12:12:15;;;;;;;16.17;9.23;;;;;;;10.48;71.07;94000.66;5015143;28;20284;-80
2021/12/05 12:14:41;;;;;;;15.97;8.50;;;;;;;10.45;71.59;93988.00;5033479;28;20174;-79
2021/12/05 12:17:13;;;;;;;18.30;7.93;;;;;;;10.49;70.96;93968.06;5033948;28;20164;-81
2021/12/05 12:19:39;;;;;;;17.93;8.80;;;;;;;10.51;71.83;93972.06;5034041;28;20163;-81
2021/12/05 12:22:07;;;;;;;17.90;8.60;;;;;;;10.49;70.68;93955.72;5033246;28;20548;-84
2021/12/05 12:24:33;;;;;;;14.73;7.40;;;;;;;10.74;69.60;93984.38;5033389;28;20212;-79
2021/12/05 12:26:58;;;;;;;18.40;8.13;;;;;;;10.82;69.74;93980.56;5032718;28;20750;-81
2021/12/05 12:29:26;;;;;;;14.10;7.13;;;;;;;10.75;69.03;93949.13;5033382;28;20207;-87
2021/12/05 12:31:54;;;;;;;13.80;6.90;;;;;;;10.84;67.74;93973.25;5033215;28;20187;-79
2021/12/05 12:34:24;;;;;;;14.70;6.60;;;;;;;10.87;68.01;93978.06;5033137;28;20206;-84
2021/12/05 12:36:59;;;;;;;9.63;6.03;;;;;;;10.82;68.17;93978.75;5033204;28;20294;-82
2021/12/05 12:39:31;;;;;;;12.20;6.23;;;;;;;10.79;68.27;93973.16;5028814;28;20184;-85
2021/12/05 12:42:13;;;;;;;10.67;6.33;;;;;;;10.89;67.67;93981.25;5013600;28;20176;-77
2021/12/05 12:45:00;;;;;;;11.20;6.27;;;;;;;10.89;67.63;93974.16;5013567;28;20190;-82
2021/12/05 12:47:33;;;;;;;11.87;6.33;;;;;;;10.70;68.01;93941.16;5013399;28;20173;-82
2021/12/05 12:50:29;;;;;;;12.33;6.77;;;;;;;10.93;68.03;93966.56;5013649;28;20157;-87
2021/12/05 12:53:26;;;;;;;19.50;7.30;;;;;;;11.01;67.77;93962.78;5013535;28;20153;-83
2021/12/05 12:55:55;;;;;;;14.67;7.30;;;;;;;11.07;67.61;93961.84;4995314;28;20632;-83
2021/12/05 12:59:01;;;;;;;13.17;7.47;;;;;;;11.12;67.85;93959.28;5013546;28;20177;-85
2021/12/05 13:12:42;;;;;;;14.30;6.13;;;;;;;10.94;68.55;93958.44;5028997;28;20176;-81
2021/12/05 13:15:45;;;;;;;12.83;7.33;;;;;;;10.82;69.18;93959.50;5029081;28;20198;-81
2021/12/05 13:18:10;;;;;;;15.77;7.70;;;;;;;10.69;70.04;93946.63;5011916;28;20857;-81
2021/12/05 13:20:42;;;;;;;14.43;7.37;;;;;;;10.72;70.04;93944.34;5029101;28;20233;-81
2021/12/05 13:23:14;;;;;;;18.43;7.50;;;;;;;10.63;70.95;93950.22;5029248;28;20175;-81
2021/12/05 13:26:07;;;;;;;13.03;6.80;;;;;;;10.64;70.98;93943.91;5029432;28;20220;-82
2021/12/05 13:28:56;;;;;;;15.60;7.43;;;;;;;10.64;71.43;93947.31;5028856;28;20182;-81
2021/12/05 13:31:27;;;;;;;12.87;7.30;;;;;;;10.61;71.71;93950.44;5029381;28;20175;-81
2021/12/05 13:34:15;;;;;;;12.63;7.50;;;;;;;10.59;72.07;93944.59;5030053;28;20191;-81
2021/12/05 13:36:46;;;;;;;16.30;9.30;;;;;;;10.43;72.19;93938.25;5012174;28;20179;-81
2021/12/05 13:39:49;;;;;;;16.03;7.70;;;;;;;10.44;72.76;93945.09;5030652;28;20512;-81
2021/12/05 13:42:45;;;;;;;14.03;7.77;;;;;;;10.50;72.67;93951.25;5038131;28;20179;-82
2021/12/05 13:45:22;;;;;;;16.73;8.10;;;;;;;10.51;72.55;93948.41;5045619;28;20178;-82
2021/12/05 13:47:51;;;;;;;14.27;7.23;;;;;;;10.45;72.77;93949.34;5009995;28;20172;-80
2021/12/05 13:50:16;;;;;;;19.37;8.03;;;;;;;10.44;72.90;93944.31;5050119;28;20181;-84
2021/12/05 13:52:53;;;;;;;13.23;7.70;;;;;;;10.37;72.05;93915.50;5051997;28;20254;-88
2021/12/05 13:56:03;;;;;;;14.90;7.03;;;;;;;10.43;71.81;93940.06;5038159;28;20180;-86
2021/12/05 13:58:35;;;;;;;15.40;7.93;;;;;;;10.25;72.18;93937.56;5030283;28;20217;-83
2021/12/05 14:01:03;;;;;;;18.00;6.90;;;;;;;10.16;73.00;93937.91;5030108;28;20164;-82
2021/12/05 14:03:38;;;;;;;11.30;6.40;;;;;;;10.08;72.90;93946.16;5013735;28;20190;-89
2021/12/05 14:06:31;;;;;;;12.67;7.37;;;;;;;10.02;72.85;93930.50;5013919;28;20226;-83
2021/12/05 14:09:04;;;;;;;16.60;8.77;;;;;;;10.09;73.08;93942.50;5031111;28;20182;-80
2021/12/05 14:11:31;;;;;;;20.03;8.77;;;;;;;9.90;73.04;93904.22;5027603;28;20179;-83
2021/12/05 14:13:56;;;;;;;15.13;8.47;;;;;;;10.07;73.50;93941.91;5019039;28;20214;-82
2021/12/05 14:16:31;;;;;;;13.37;7.90;;;;;;;10.01;73.95;93948.09;5031582;28;20604;-81
2021/12/05 14:18:57;;;;;;;17.77;9.13;;;;;;;9.91;74.50;93953.13;5020280;28;20650;-84
2021/12/05 14:21:25;;;;;;;15.43;8.03;;;;;;;9.77;75.04;93949.13;5014022;28;20184;-84
2021/12/05 14:24:41;;;;;;;14.27;8.23;;;;;;;9.75;74.90;93946.72;5013732;28;20214;-81
2021/12/05 14:27:10;;;;;;;13.63;8.03;;;;;;;9.63;74.73;93929.34;5012145;28;20593;-84
2021/12/05 14:29:41;;;;;;;13.10;7.37;;;;;;;9.53;74.67;93921.22;5012008;28;20690;-84
2021/12/05 14:32:09;;;;;;;15.83;8.30;;;;;;;9.74;74.66;93946.94;5029317;28;20205;-81
2021/12/05 14:34:35;;;;;;;11.60;6.93;;;;;;;9.76;74.08;93945.69;5023101;28;20203;-81
2021/12/05 14:37:06;;;;;;;14.13;7.30;;;;;;;9.55;74.02;93906.03;5008051;28;20235;-88
2021/12/05 14:39:33;;;;;;;14.47;8.23;;;;;;;9.72;74.24;93951.63;5031279;28;20183;-85
2021/12/05 14:42:05;;;;;;;15.63;9.10;;;;;;;9.51;73.69;93913.59;5013485;28;20187;-84
2021/12/05 14:44:32;;;;;;;13.53;7.90;;;;;;;9.16;74.18;93868.91;5031260;28;20202;-88
2021/12/05 14:47:25;;;;;;;12.17;7.20;;;;;;;9.26;74.82;93905.88;5031371;28;20306;-89
2021/12/05 14:49:54;;;;;;;14.73;7.83;;;;;;;8.65;74.87;93825.63;5014257;28;20192;-88
2021/12/05 14:52:24;;;;;;;12.63;8.23;;;;;;;9.42;75.26;93954.34;5034835;28;20179;-88
2021/12/05 14:54:50;;;;;;;14.70;7.63;;;;;;;8.95;75.75;93906.97;5035074;28;20612;-92
2021/12/05 14:57:22;;;;;;;13.17;7.73;;;;;;;9.06;75.80;93936.91;5018104;28;20183;-88
2021/12/05 14:59:50;;;;;;;17.10;7.87;;;;;;;8.34;76.13;93820.66;5017702;28;20183;-88
2021/12/05 15:02:18;;;;;;;16.57;8.33;;;;;;;8.69;76.55;93875.84;5017262;28;20168;-91
2021/12/05 15:04:47;;;;;;;13.07;7.93;;;;;;;8.68;76.44;93869.81;5016560;28;20183;-93
2021/12/05 15:07:13;;;;;;;14.93;8.47;;;;;;;8.54;76.48;93868.38;5035373;28;20356;-93
2021/12/05 15:09:45;;;;;;;19.67;9.37;;;;;;;9.19;76.65;93970.81;5017273;28;20301;-86
2021/12/05 15:12:16;;;;;;;17.33;9.63;;;;;;;9.19;76.73;93970.81;5016911;28;20183;-84
2021/12/05 15:14:45;;;;;;;19.20;10.17;;;;;;;9.15;76.17;93967.06;5030293;28;20175;-85
2021/12/05 15:17:17;;;;;;;18.93;10.87;;;;;;;9.04;76.89;93968.63;5034987;28;20164;-84
2021/12/05 15:19:46;;;;;;;21.77;11.40;;;;;;;8.67;77.08;93922.47;5035731;28;20549;-88
2021/12/05 15:22:13;;;;;;;23.77;11.77;;;;;;;8.51;77.48;93928.34;5018018;28;20314;-94
2021/12/05 15:24:41;;;;;;;22.40;11.73;;;;;;;8.59;77.79;93955.06;5019838;28;20175;-95
2021/12/05 15:27:15;;;;;;;22.27;11.77;;;;;;;8.18;77.69;93894.63;5037595;28;20224;-96
2021/12/05 15:29:48;;;;;;;21.93;11.93;;;;;;;8.26;77.94;93933.66;5019289;28;20230;-95
2021/12/05 15:32:40;;;;;;;24.17;12.30;;;;;;;8.42;78.84;93967.19;5018288;28;20187;-95
2021/12/05 15:35:09;;;;;;;21.43;12.43;;;;;;;7.73;78.80;93858.25;5015065;28;20249;-95
2021/12/05 15:37:35;;;;;;;20.83;12.20;;;;;;;8.13;79.49;93941.69;5017711;28;20168;-94
2021/12/05 15:40:04;;;;;;;24.00;12.07;;;;;;;7.90;79.73;93916.09;5017614;28;20183;-95
2021/12/05 15:42:33;;;;;;;25.13;13.17;;;;;;;8.30;79.54;93977.56;5017476;28;20202;-91
2021/12/05 15:45:01;;;;;;;24.30;13.47;;;;;;;7.78;79.80;93916.03;5016803;28;20175;-91
2021/12/05 15:47:33;;;;;;;24.63;12.30;;;;;;;8.22;79.87;93990.16;5016825;28;20218;-91
2021/12/05 15:50:23;;;;;;;23.57;12.73;;;;;;;8.19;80.12;93996.66;5016558;28;20168;-89
2021/12/05 15:52:48;;;;;;;23.67;12.83;;;;;;;8.04;80.13;94003.25;5032868;28;20206;-90
2021/12/05 15:55:22;;;;;;;21.97;11.47;;;;;;;8.01;80.72;94007.09;5016302;28;20188;-90
2021/12/05 15:58:19;;;;;;;21.97;11.57;;;;;;;7.60;80.35;93947.44;5016117;28;20182;-91
2021/12/05 16:01:13;;;;;;;23.23;11.33;;;;;;;7.57;80.79;93940.78;5006655;28;20202;-91
2021/12/05 16:03:50;;;;;;;21.87;11.10;;;;;;;7.44;80.95;93937.47;5028569;28;20259;-92
2021/12/05 16:06:17;;;;;;;21.87;12.07;;;;;;;7.45;81.41;93941.69;5016332;28;20595;-93
2021/12/05 16:08:46;;;;;;;21.83;10.57;;;;;;;7.85;81.50;94020.75;5016468;28;20191;-91
2021/12/05 16:11:17;;;;;;;21.33;10.93;;;;;;;7.25;81.12;93934.00;5015539;28;20237;-88
2021/12/05 16:13:45;;;;;;;19.57;10.30;;;;;;;7.79;81.48;94011.09;5009520;28;20592;-88
2021/12/05 16:16:25;;;;;;;21.43;9.33;;;;;;;7.46;81.87;93970.28;5013188;28;20180;-94
2021/12/05 16:18:55;;;;;;;16.87;9.57;;;;;;;7.27;82.31;93965.19;5012759;28;20219;-87
2021/12/05 16:21:26;;;;;;;19.20;10.17;;;;;;;7.36;82.36;93996.13;5025785;28;20180;-85
2021/12/05 16:23:53;;;;;;;22.80;9.67;;;;;;;7.61;82.47;94011.84;5033194;28;20316;-86
2021/12/05 16:26:25;;;;;;;17.93;9.70;;;;;;;7.61;83.06;94016.31;5032482;28;20601;-87
2021/12/05 16:28:54;;;;;;;23.10;10.57;;;;;;;7.14;82.76;93953.81;5010505;28;20322;-87
2021/12/05 16:31:30;;;;;;;21.10;10.83;;;;;;;7.20;83.13;93949.53;5028640;28;20231;-86
2021/12/05 16:34:03;;;;;;;19.53;9.90;;;;;;;7.26;84.35;94015.94;5032602;28;20182;-89
2021/12/05 16:36:45;;;;;;;23.43;11.47;;;;;;;7.26;84.91;94010.72;5015023;28;20207;-86
2021/12/05 16:39:27;;;;;;;17.10;10.73;;;;;;;7.24;84.67;94025.81;5015882;28;20175;-91
2021/12/05 16:41:56;;;;;;;21.57;9.87;;;;;;;7.23;85.04;94017.16;5032792;28;20262;-91
2021/12/05 16:44:24;;;;;;;21.60;11.27;;;;;;;6.70;84.73;93940.78;5014812;28;20258;-88
2021/12/05 16:46:55;;;;;;;19.63;11.03;;;;;;;7.17;85.28;94024.06;5030546;28;20199;-86
2021/12/05 16:49:24;;;;;;;24.17;12.23;;;;;;;6.63;85.49;93935.63;5032508;28;20255;-87
2021/12/05 16:51:56;;;;;;;20.77;10.37;;;;;;;7.17;84.89;94012.78;5030541;28;20252;-88
2021/12/05 16:54:31;;;;;;;21.50;10.50;;;;;;;6.81;84.85;93963.69;5032387;28;20182;-86
2021/12/05 16:57:01;;;;;;;18.20;11.27;;;;;;;6.94;84.96;93991.56;5014440;28;20256;-87
2021/12/05 16:59:31;;;;;;;27.83;13.23;;;;;;;6.77;84.92;93976.34;5030998;28;20172;-88
2021/12/05 17:02:13;;;;;;;22.70;12.53;;;;;;;6.65;85.80;93974.63;5032086;28;20203;-87
2021/12/05 17:04:58;;;;;;;27.30;12.87;;;;;;;6.95;86.05;94022.75;5014346;28;20191;-86
2021/12/05 17:07:37;;;;;;;24.43;13.37;;;;;;;6.87;85.86;94043.13;5030453;28;20184;-85
2021/12/05 17:10:27;;;;;;;31.17;13.77;;;;;;;6.64;86.72;94007.00;5031143;28;20183;-89
2021/12/05 17:13:13;;;;;;;25.50;13.43;;;;;;;6.86;86.07;94024.00;4984600;28;20222;-91
2021/12/05 17:15:58;;;;;;;26.40;13.20;;;;;;;6.89;86.42;94034.06;5007328;28;20610;-88